Big Piney, Wyoming
Current Conditions -  °F | °C
As of 1:53 AM on Friday 19 Dec 2014 (Local Time) from KBPI Reporting Station
Scattered Clouds Scattered Clouds  
Wind Chill:   Ceiling: Unl
Heat Index:   Visibility: 10mi
Dew Point:   Wind: 3mph
Humidity: 87%   Direction: 80°E
Pressure: 30.12"   Gusts: NA
Location:  42.54°N, 110.11°W
Report Text: KBPI 190853Z AUTO 08003KT 10SM SCT080 M13/M15 A3012 RMK AO2 SLP238 T11331150 58001
Loading
Personal Weather Stations






























Interactive Weather Map New forecast layout! Learn more

10-Day Weather Forecast

Advertisements
Track Severe Weather on mobile